createdAt,value
2022-12-03T00:02:56.835Z,101694.00
2022-12-03T00:07:59.962Z,101693.00
2022-12-03T00:13:03.121Z,101691.80
2022-12-03T00:18:08.927Z,101691.60
2022-12-03T00:23:11.799Z,101686.00
2022-12-03T00:28:17.749Z,101682.20
2022-12-03T00:33:22.067Z,101672.80
2022-12-03T00:38:24.934Z,101671.20
2022-12-03T00:43:28.003Z,101671.20
2022-12-03T00:48:33.498Z,101667.80
2022-12-03T00:53:39.146Z,101671.80
2022-12-03T00:58:42.068Z,101665.80
2022-12-03T01:03:45.065Z,101659.60
2022-12-03T01:08:50.857Z,101658.40
2022-12-03T01:13:56.756Z,101665.20
2022-12-03T01:18:59.757Z,101657.80
2022-12-03T01:24:03.771Z,101653.00
2022-12-03T01:29:07.845Z,101651.80
2022-12-03T01:34:11.171Z,101648.00
2022-12-03T01:39:18.823Z,101653.00
2022-12-03T01:44:34.434Z,101648.20
2022-12-03T01:50:20.685Z,101650.40
2022-12-03T01:55:26.055Z,101645.20
2022-12-03T02:00:30.234Z,101648.40
2022-12-03T02:05:34.477Z,101648.00
2022-12-03T02:10:38.690Z,101638.60
2022-12-03T02:15:41.682Z,101639.20
2022-12-03T02:20:58.320Z,101641.60
2022-12-03T02:26:01.292Z,101631.80
2022-12-03T02:31:05.511Z,101628.40
2022-12-03T02:36:09.455Z,101626.20
2022-12-03T02:41:37.329Z,101622.80
2022-12-03T02:46:40.691Z,101619.60
2022-12-03T02:51:43.606Z,101617.00
2022-12-03T02:56:46.523Z,101612.20
2022-12-03T03:01:49.587Z,101608.60
2022-12-03T03:06:53.103Z,101610.60
2022-12-03T03:11:56.149Z,101609.40
2022-12-03T03:16:59.269Z,101606.00
2022-12-03T03:22:02.221Z,101606.80
2022-12-03T03:27:06.279Z,101601.20
2022-12-03T03:32:09.334Z,101599.00
2022-12-03T03:37:12.530Z,101598.00
2022-12-03T03:42:15.903Z,101593.80
2022-12-03T03:47:20.326Z,101594.60
2022-12-03T03:52:23.686Z,101591.80
2022-12-03T03:57:26.876Z,101593.80
2022-12-03T04:02:29.811Z,101586.00
2022-12-03T04:07:32.798Z,101582.60
2022-12-03T04:12:54.784Z,101592.40
2022-12-03T04:18:16.972Z,101588.00
2022-12-03T04:23:19.858Z,101588.60
2022-12-03T04:28:41.722Z,101578.00
2022-12-03T04:34:03.505Z,101582.00
2022-12-03T04:39:06.579Z,101575.40
2022-12-03T04:44:28.088Z,101579.00
2022-12-03T04:49:32.188Z,101571.20
2022-12-03T04:54:35.150Z,101573.20
2022-12-03T04:59:38.849Z,101575.20
2022-12-03T05:04:41.807Z,101571.60
2022-12-03T05:09:44.752Z,101568.60
2022-12-03T05:14:48.362Z,101566.20
2022-12-03T05:20:10.207Z,101574.60
2022-12-03T05:25:13.096Z,101565.80
2022-12-03T05:30:16.340Z,101568.60
2022-12-03T05:35:19.453Z,101564.00
2022-12-03T05:40:22.890Z,101560.80
2022-12-03T05:45:36.210Z,101565.00
2022-12-03T05:50:43.348Z,101564.60
2022-12-03T05:55:46.198Z,101559.40
2022-12-03T06:00:49.100Z,101558.80
2022-12-03T06:05:52.067Z,101551.00
2022-12-03T06:10:55.015Z,101554.40
2022-12-03T06:15:58.106Z,101551.40
2022-12-03T06:21:01.018Z,101555.40
2022-12-03T06:26:03.980Z,101556.40
2022-12-03T06:31:07.297Z,101564.80
2022-12-03T06:36:10.262Z,101560.40
2022-12-03T06:41:13.122Z,101564.00
2022-12-03T06:46:16.166Z,101562.80
2022-12-03T06:51:19.106Z,101555.20
2022-12-03T06:56:22.692Z,101552.80
2022-12-03T07:01:26.205Z,101550.60
2022-12-03T07:06:29.097Z,101549.80
2022-12-03T07:11:32.047Z,101544.60
2022-12-03T07:16:36.624Z,101542.20
2022-12-03T07:21:39.798Z,101536.40
2022-12-03T07:26:42.696Z,101539.00
2022-12-03T07:31:45.801Z,101546.20
2022-12-03T07:36:48.875Z,101538.40
2022-12-03T07:41:51.865Z,101541.00
2022-12-03T07:46:55.566Z,101533.80
2022-12-03T07:51:58.642Z,101541.00
2022-12-03T07:57:02.141Z,101536.80
2022-12-03T08:02:05.492Z,101542.20
2022-12-03T08:07:08.517Z,101536.40
2022-12-03T08:12:20.650Z,101539.40
2022-12-03T08:17:24.678Z,101544.40
2022-12-03T08:22:27.639Z,101550.20
2022-12-03T08:27:31.015Z,101543.20
2022-12-03T08:32:33.892Z,101552.40
2022-12-03T08:37:36.948Z,101546.60
2022-12-03T08:42:43.126Z,101543.40
2022-12-03T08:47:46.370Z,101547.60
2022-12-03T08:52:49.824Z,101540.00
2022-12-03T08:57:53.854Z,101542.80
2022-12-03T09:03:00.973Z,101536.40
2022-12-03T09:08:04.013Z,101536.80
2022-12-03T09:13:07.110Z,101536.60
2022-12-03T09:18:10.175Z,101534.80
2022-12-03T09:23:13.065Z,101534.60
2022-12-03T09:28:16.028Z,101537.00
2022-12-03T09:33:19.015Z,101533.80
2022-12-03T09:38:22.259Z,101534.60
2022-12-03T09:43:49.381Z,101534.80
2022-12-03T09:48:51.353Z,101521.00
2022-12-03T09:53:54.342Z,101515.20
2022-12-03T09:58:57.735Z,101521.60
2022-12-03T10:04:02.167Z,101522.80
2022-12-03T10:09:06.924Z,101513.40
2022-12-03T10:14:14.732Z,101510.80
2022-12-03T10:19:28.932Z,101507.40
2022-12-03T10:24:35.472Z,101507.60
2022-12-03T10:29:38.407Z,101507.60
2022-12-03T10:34:42.716Z,101503.00
2022-12-03T10:40:02.610Z,101506.00
2022-12-03T10:45:08.545Z,101504.60
2022-12-03T10:50:19.342Z,101502.00
2022-12-03T10:55:22.357Z,101500.80
2022-12-03T11:00:25.544Z,101496.00
2022-12-03T11:05:28.629Z,101496.60
2022-12-03T11:10:31.823Z,101492.80
2022-12-03T11:15:45.515Z,101497.60
2022-12-03T11:21:00.390Z,101484.60
2022-12-03T11:26:03.281Z,101486.00
2022-12-03T11:31:12.471Z,101471.80
2022-12-03T11:36:16.839Z,101475.00
2022-12-03T11:41:33.514Z,101461.80
2022-12-03T11:46:36.623Z,101463.00
2022-12-03T11:51:44.246Z,101458.40
2022-12-03T11:56:50.146Z,101453.20
2022-12-03T12:01:53.120Z,101451.80
2022-12-03T12:06:56.118Z,101450.80
2022-12-03T12:12:20.318Z,101442.80
2022-12-03T12:17:37.193Z,101449.80
2022-12-03T12:22:40.144Z,101444.40
2022-12-03T12:27:45.697Z,101440.40
2022-12-03T12:32:56.830Z,101437.20
2022-12-03T12:38:11.027Z,101433.20
2022-12-03T12:43:29.717Z,101433.80
2022-12-03T12:48:35.549Z,101439.00
2022-12-03T12:53:42.895Z,101445.00
2022-12-03T12:58:46.389Z,101441.60
2022-12-03T13:03:52.652Z,101437.60
2022-12-03T13:08:57.133Z,101441.20
2022-12-03T13:14:10.882Z,101446.60
2022-12-03T13:19:43.331Z,101445.80
2022-12-03T13:24:54.341Z,101438.20
2022-12-03T13:30:02.915Z,101436.00
2022-12-03T13:35:09.730Z,101435.20
2022-12-03T13:40:28.280Z,101434.00
2022-12-03T13:45:37.684Z,101429.20
2022-12-03T13:50:46.188Z,101425.60
2022-12-03T13:56:01.226Z,101430.60
2022-12-03T14:01:04.184Z,101428.40
2022-12-03T14:06:07.264Z,101439.00
2022-12-03T14:11:31.213Z,101429.60
2022-12-03T14:16:34.198Z,101431.60
2022-12-03T14:21:37.512Z,101434.60
2022-12-03T14:26:40.492Z,101435.20
2022-12-03T14:31:43.430Z,101441.00
2022-12-03T14:36:46.596Z,101438.60
2022-12-03T14:42:08.534Z,101438.00
2022-12-03T14:47:12.998Z,101446.80
2022-12-03T14:52:16.144Z,101434.60
2022-12-03T14:57:19.264Z,101428.00
2022-12-03T15:02:22.249Z,101429.60
2022-12-03T15:07:25.496Z,101423.20
2022-12-03T15:12:28.458Z,101419.20
2022-12-03T15:17:32.284Z,101413.40
2022-12-03T15:22:35.411Z,101416.00
2022-12-03T15:27:38.415Z,101420.20
2022-12-03T15:32:41.435Z,101416.40
2022-12-03T15:37:45.654Z,101423.40
2022-12-03T15:42:48.973Z,101425.00
2022-12-03T15:47:51.897Z,101422.80
2022-12-03T15:52:55.517Z,101431.20
2022-12-03T15:57:58.493Z,101427.40
2022-12-03T16:03:01.531Z,101425.40
2022-12-03T16:08:04.937Z,101428.80
2022-12-03T16:13:08.039Z,101431.80
2022-12-03T16:18:11.264Z,101429.20
2022-12-03T16:23:14.201Z,101432.00
2022-12-03T16:28:17.177Z,101434.20
2022-12-03T16:33:25.665Z,101435.00
2022-12-03T16:38:31.343Z,101434.00
2022-12-03T16:43:36.033Z,101434.00
2022-12-03T16:48:39.068Z,101436.20
2022-12-03T16:53:42.588Z,101446.60
2022-12-03T16:58:45.748Z,101451.80
2022-12-03T17:03:48.902Z,101455.00
2022-12-03T17:08:51.871Z,101451.00
2022-12-03T17:13:54.794Z,101448.60
2022-12-03T17:18:58.048Z,101445.00
2022-12-03T17:24:01.199Z,101443.20
2022-12-03T17:29:04.899Z,101443.40
2022-12-03T17:34:08.187Z,101450.20
2022-12-03T17:39:11.093Z,101447.00
2022-12-03T17:44:19.456Z,101455.60
2022-12-03T17:49:28.395Z,101452.00
2022-12-03T17:55:01.879Z,101454.40
2022-12-03T17:59:57.612Z,101444.20
2022-12-03T18:05:00.611Z,101438.80
2022-12-03T18:10:04.595Z,101449.80
2022-12-03T18:15:09.127Z,101450.00
2022-12-03T18:20:12.406Z,101453.20
2022-12-03T18:25:15.434Z,101444.20
2022-12-03T18:30:18.959Z,101443.60
2022-12-03T18:35:22.143Z,101447.80
2022-12-03T18:40:27.314Z,101455.20
2022-12-03T18:45:30.288Z,101453.20
2022-12-03T18:50:33.316Z,101445.80
2022-12-03T18:55:36.648Z,101442.00
2022-12-03T19:00:40.437Z,101447.40
2022-12-03T19:05:43.649Z,101435.60
2022-12-03T19:10:59.824Z,101437.80
2022-12-03T19:16:06.046Z,101432.00
2022-12-03T19:21:13.043Z,101441.00
2022-12-03T19:26:16.132Z,101454.80
2022-12-03T19:31:19.909Z,101446.40
2022-12-03T19:36:29.505Z,101450.60
2022-12-03T19:41:32.714Z,101454.60
2022-12-03T19:46:35.698Z,101455.80
2022-12-03T19:51:38.647Z,101453.80
2022-12-03T19:56:41.642Z,101454.00
2022-12-03T20:01:44.934Z,101457.20
2022-12-03T20:06:48.451Z,101463.20
2022-12-03T20:11:51.833Z,101461.20
2022-12-03T20:16:55.166Z,101463.80
2022-12-03T20:22:02.585Z,101458.80
2022-12-03T20:27:06.397Z,101458.00
2022-12-03T20:32:09.512Z,101462.20
2022-12-03T20:37:12.702Z,101456.80
2022-12-03T20:42:15.698Z,101463.60
2022-12-03T20:47:19.567Z,101461.60
2022-12-03T20:52:22.658Z,101460.60
2022-12-03T20:57:25.641Z,101451.00
2022-12-03T21:02:28.837Z,101454.80
2022-12-03T21:07:32.053Z,101457.00
2022-12-03T21:12:34.997Z,101453.20
2022-12-03T21:17:38.407Z,101450.20
2022-12-03T21:22:41.621Z,101451.40
2022-12-03T21:27:44.794Z,101452.60
2022-12-03T21:32:47.907Z,101441.20
2022-12-03T21:37:51.740Z,101442.60
2022-12-03T21:42:54.747Z,101437.60
2022-12-03T21:47:57.876Z,101438.60
2022-12-03T21:53:00.964Z,101438.40
2022-12-03T21:58:03.908Z,101444.80
2022-12-03T22:03:06.930Z,101442.20
2022-12-03T22:08:10.101Z,101441.80
2022-12-03T22:13:13.084Z,101444.00
2022-12-03T22:18:15.979Z,101452.80
2022-12-03T22:23:18.963Z,101445.40
2022-12-03T22:28:21.878Z,101445.80
2022-12-03T22:33:25.183Z,101443.00
2022-12-03T22:38:30.607Z,101447.00
2022-12-03T22:43:34.320Z,101454.60
2022-12-03T22:48:37.388Z,101453.80
2022-12-03T22:53:40.536Z,101446.40
2022-12-03T22:58:43.437Z,101438.80
2022-12-03T23:03:46.369Z,101439.80
2022-12-03T23:08:50.458Z,101448.60
2022-12-03T23:13:54.306Z,101443.40
2022-12-03T23:19:02.224Z,101439.40
2022-12-03T23:24:06.314Z,101442.40
2022-12-03T23:29:09.325Z,101437.80
2022-12-03T23:34:12.336Z,101442.60
2022-12-03T23:39:15.439Z,101432.20
2022-12-03T23:44:18.927Z,101438.20
2022-12-03T23:49:21.854Z,101437.60
2022-12-03T23:54:24.928Z,101432.20
2022-12-03T23:59:27.915Z,101445.20
